sensor_id;sensor_type;location;lat;lon;timestamp;P1;durP1;ratioP1;P2;durP2;ratioP2
56770;SDS011;42641;59.794;17.616;2023-01-31T00:01:09;3.13;;;0.90;;
56770;SDS011;42641;59.794;17.616;2023-01-31T00:03:47;1.03;;;0.60;;
56770;SDS011;42641;59.794;17.616;2023-01-31T00:06:18;4.57;;;1.00;;
56770;SDS011;42641;59.794;17.616;2023-01-31T00:08:50;1.13;;;0.67;;
56770;SDS011;42641;59.794;17.616;2023-01-31T00:11:18;2.27;;;0.70;;
56770;SDS011;42641;59.794;17.616;2023-01-31T00:13:46;4.00;;;0.93;;
56770;SDS011;42641;59.794;17.616;2023-01-31T00:16:14;0.77;;;0.63;;
56770;SDS011;42641;59.794;17.616;2023-01-31T00:18:41;1.07;;;0.50;;
56770;SDS011;42641;59.794;17.616;2023-01-31T00:21:18;2.03;;;0.60;;
56770;SDS011;42641;59.794;17.616;2023-01-31T00:23:51;1.13;;;0.87;;
56770;SDS011;42641;59.794;17.616;2023-01-31T00:26:23;1.60;;;0.80;;
56770;SDS011;42641;59.794;17.616;2023-01-31T00:28:50;0.50;;;0.40;;
56770;SDS011;42641;59.794;17.616;2023-01-31T00:31:19;1.13;;;0.67;;
56770;SDS011;42641;59.794;17.616;2023-01-31T00:33:48;1.33;;;0.80;;
56770;SDS011;42641;59.794;17.616;2023-01-31T00:36:23;1.57;;;0.50;;
56770;SDS011;42641;59.794;17.616;2023-01-31T00:38:52;2.40;;;0.77;;
56770;SDS011;42641;59.794;17.616;2023-01-31T00:41:19;1.53;;;0.53;;
56770;SDS011;42641;59.794;17.616;2023-01-31T00:43:47;0.90;;;0.70;;
56770;SDS011;42641;59.794;17.616;2023-01-31T00:46:15;3.40;;;0.83;;
56770;SDS011;42641;59.794;17.616;2023-01-31T00:48:42;1.90;;;0.67;;
56770;SDS011;42641;59.794;17.616;2023-01-31T00:51:08;1.60;;;0.50;;
56770;SDS011;42641;59.794;17.616;2023-01-31T00:53:34;2.87;;;0.80;;
56770;SDS011;42641;59.794;17.616;2023-01-31T00:56:02;0.53;;;0.53;;
56770;SDS011;42641;59.794;17.616;2023-01-31T00:58:32;0.87;;;0.60;;
56770;SDS011;42641;59.794;17.616;2023-01-31T01:01:09;1.10;;;0.53;;
56770;SDS011;42641;59.794;17.616;2023-01-31T01:03:45;0.60;;;0.33;;
56770;SDS011;42641;59.794;17.616;2023-01-31T01:06:11;1.87;;;0.63;;
56770;SDS011;42641;59.794;17.616;2023-01-31T01:08:41;0.30;;;0.30;;
56770;SDS011;42641;59.794;17.616;2023-01-31T01:11:12;0.70;;;0.50;;
56770;SDS011;42641;59.794;17.616;2023-01-31T01:13:39;0.20;;;0.20;;
56770;SDS011;42641;59.794;17.616;2023-01-31T01:16:07;0.30;;;0.30;;
56770;SDS011;42641;59.794;17.616;2023-01-31T01:18:41;0.30;;;0.30;;
56770;SDS011;42641;59.794;17.616;2023-01-31T01:21:10;0.57;;;0.50;;
56770;SDS011;42641;59.794;17.616;2023-01-31T01:23:41;1.97;;;0.50;;
56770;SDS011;42641;59.794;17.616;2023-01-31T01:26:17;0.33;;;0.33;;
56770;SDS011;42641;59.794;17.616;2023-01-31T01:28:48;0.20;;;0.20;;
56770;SDS011;42641;59.794;17.616;2023-01-31T01:31:16;0.30;;;0.30;;
56770;SDS011;42641;59.794;17.616;2023-01-31T01:33:44;0.50;;;0.40;;
56770;SDS011;42641;59.794;17.616;2023-01-31T01:36:13;0.90;;;0.40;;
56770;SDS011;42641;59.794;17.616;2023-01-31T01:38:42;1.77;;;0.60;;
56770;SDS011;42641;59.794;17.616;2023-01-31T01:41:10;1.80;;;0.50;;
56770;SDS011;42641;59.794;17.616;2023-01-31T01:49:03;0.67;;;0.47;;
56770;SDS011;42641;59.794;17.616;2023-01-31T01:51:37;1.27;;;0.77;;
56770;SDS011;42641;59.794;17.616;2023-01-31T01:54:07;0.70;;;0.47;;
56770;SDS011;42641;59.794;17.616;2023-01-31T01:56:39;0.30;;;0.30;;
56770;SDS011;42641;59.794;17.616;2023-01-31T01:59:17;0.93;;;0.33;;
56770;SDS011;42641;59.794;17.616;2023-01-31T02:01:47;1.53;;;0.47;;
56770;SDS011;42641;59.794;17.616;2023-01-31T02:04:20;0.30;;;0.30;;
56770;SDS011;42641;59.794;17.616;2023-01-31T02:06:50;1.93;;;0.50;;
56770;SDS011;42641;59.794;17.616;2023-01-31T02:09:21;0.80;;;0.33;;
56770;SDS011;42641;59.794;17.616;2023-01-31T02:11:57;0.53;;;0.30;;
56770;SDS011;42641;59.794;17.616;2023-01-31T02:14:24;0.20;;;0.20;;
56770;SDS011;42641;59.794;17.616;2023-01-31T02:16:51;0.30;;;0.30;;
56770;SDS011;42641;59.794;17.616;2023-01-31T02:19:30;0.87;;;0.47;;
56770;SDS011;42641;59.794;17.616;2023-01-31T02:22:03;0.50;;;0.50;;
56770;SDS011;42641;59.794;17.616;2023-01-31T02:24:40;0.43;;;0.30;;
56770;SDS011;42641;59.794;17.616;2023-01-31T02:27:22;0.60;;;0.23;;
56770;SDS011;42641;59.794;17.616;2023-01-31T02:30:27;1.70;;;0.30;;
56770;SDS011;42641;59.794;17.616;2023-01-31T02:36:00;0.20;;;0.20;;
56770;SDS011;42641;59.794;17.616;2023-01-31T02:41:42;0.20;;;0.20;;
56770;SDS011;42641;59.794;17.616;2023-01-31T02:44:26;0.30;;;0.30;;
56770;SDS011;42641;59.794;17.616;2023-01-31T02:47:30;0.23;;;0.20;;
56770;SDS011;42641;59.794;17.616;2023-01-31T02:50:28;0.30;;;0.30;;
56770;SDS011;42641;59.794;17.616;2023-01-31T02:53:02;1.50;;;0.37;;
56770;SDS011;42641;59.794;17.616;2023-01-31T02:58:33;0.40;;;0.40;;
56770;SDS011;42641;59.794;17.616;2023-01-31T03:01:03;1.07;;;0.60;;
56770;SDS011;42641;59.794;17.616;2023-01-31T03:03:35;1.03;;;0.47;;
56770;SDS011;42641;59.794;17.616;2023-01-31T03:08:52;1.53;;;0.50;;
56770;SDS011;42641;59.794;17.616;2023-01-31T03:11:22;0.83;;;0.50;;
56770;SDS011;42641;59.794;17.616;2023-01-31T03:13:59;0.30;;;0.30;;
56770;SDS011;42641;59.794;17.616;2023-01-31T03:16:36;0.50;;;0.50;;
56770;SDS011;42641;59.794;17.616;2023-01-31T03:22:38;1.97;;;0.50;;
56770;SDS011;42641;59.794;17.616;2023-01-31T03:25:09;0.30;;;0.20;;
56770;SDS011;42641;59.794;17.616;2023-01-31T03:27:41;0.30;;;0.30;;
56770;SDS011;42641;59.794;17.616;2023-01-31T03:30:18;0.37;;;0.37;;
56770;SDS011;42641;59.794;17.616;2023-01-31T03:32:52;1.43;;;0.60;;
56770;SDS011;42641;59.794;17.616;2023-01-31T03:35:26;0.97;;;0.50;;
56770;SDS011;42641;59.794;17.616;2023-01-31T03:38:00;1.80;;;0.60;;
56770;SDS011;42641;59.794;17.616;2023-01-31T03:40:35;0.77;;;0.40;;
56770;SDS011;42641;59.794;17.616;2023-01-31T03:43:12;0.30;;;0.30;;
56770;SDS011;42641;59.794;17.616;2023-01-31T03:48:20;2.63;;;0.80;;
56770;SDS011;42641;59.794;17.616;2023-01-31T03:50:54;1.53;;;0.50;;
56770;SDS011;42641;59.794;17.616;2023-01-31T03:58:59;0.40;;;0.40;;
56770;SDS011;42641;59.794;17.616;2023-01-31T04:01:32;1.60;;;0.73;;
56770;SDS011;42641;59.794;17.616;2023-01-31T04:04:24;1.80;;;0.63;;
56770;SDS011;42641;59.794;17.616;2023-01-31T04:07:12;0.40;;;0.40;;
56770;SDS011;42641;59.794;17.616;2023-01-31T04:09:39;0.77;;;0.40;;
56770;SDS011;42641;59.794;17.616;2023-01-31T04:12:06;0.60;;;0.50;;
56770;SDS011;42641;59.794;17.616;2023-01-31T04:14:32;1.00;;;0.57;;
56770;SDS011;42641;59.794;17.616;2023-01-31T04:16:58;0.30;;;0.30;;
56770;SDS011;42641;59.794;17.616;2023-01-31T04:19:25;0.40;;;0.40;;
56770;SDS011;42641;59.794;17.616;2023-01-31T04:21:51;0.57;;;0.50;;
56770;SDS011;42641;59.794;17.616;2023-01-31T04:24:17;0.80;;;0.60;;
56770;SDS011;42641;59.794;17.616;2023-01-31T04:26:44;0.57;;;0.47;;
56770;SDS011;42641;59.794;17.616;2023-01-31T04:29:10;1.50;;;0.40;;
56770;SDS011;42641;59.794;17.616;2023-01-31T04:31:37;0.47;;;0.40;;
56770;SDS011;42641;59.794;17.616;2023-01-31T04:34:04;1.87;;;0.53;;
56770;SDS011;42641;59.794;17.616;2023-01-31T04:36:31;1.53;;;0.50;;
56770;SDS011;42641;59.794;17.616;2023-01-31T04:38:57;2.73;;;0.53;;
56770;SDS011;42641;59.794;17.616;2023-01-31T04:41:25;0.77;;;0.43;;
56770;SDS011;42641;59.794;17.616;2023-01-31T04:43:52;1.00;;;0.47;;
56770;SDS011;42641;59.794;17.616;2023-01-31T04:46:18;2.60;;;0.63;;
56770;SDS011;42641;59.794;17.616;2023-01-31T04:48:45;1.73;;;0.40;;
56770;SDS011;42641;59.794;17.616;2023-01-31T04:51:11;0.53;;;0.53;;
56770;SDS011;42641;59.794;17.616;2023-01-31T04:53:38;1.00;;;0.50;;
56770;SDS011;42641;59.794;17.616;2023-01-31T04:56:04;0.47;;;0.40;;
56770;SDS011;42641;59.794;17.616;2023-01-31T04:58:31;1.17;;;0.53;;
56770;SDS011;42641;59.794;17.616;2023-01-31T05:00:57;0.43;;;0.43;;
56770;SDS011;42641;59.794;17.616;2023-01-31T05:03:24;0.40;;;0.40;;
56770;SDS011;42641;59.794;17.616;2023-01-31T05:05:50;0.57;;;0.40;;
56770;SDS011;42641;59.794;17.616;2023-01-31T05:08:16;0.47;;;0.43;;
56770;SDS011;42641;59.794;17.616;2023-01-31T05:10:43;0.40;;;0.40;;
56770;SDS011;42641;59.794;17.616;2023-01-31T05:13:09;2.43;;;0.50;;
56770;SDS011;42641;59.794;17.616;2023-01-31T05:15:36;1.63;;;0.50;;
56770;SDS011;42641;59.794;17.616;2023-01-31T05:18:04;1.13;;;0.60;;
56770;SDS011;42641;59.794;17.616;2023-01-31T05:20:31;1.53;;;1.10;;
56770;SDS011;42641;59.794;17.616;2023-01-31T05:23:01;0.83;;;0.47;;
56770;SDS011;42641;59.794;17.616;2023-01-31T05:25:28;0.97;;;0.50;;
56770;SDS011;42641;59.794;17.616;2023-01-31T05:27:55;1.70;;;0.60;;
56770;SDS011;42641;59.794;17.616;2023-01-31T05:30:22;1.60;;;0.60;;
56770;SDS011;42641;59.794;17.616;2023-01-31T05:32:51;1.20;;;0.77;;
56770;SDS011;42641;59.794;17.616;2023-01-31T05:35:17;0.50;;;0.50;;
56770;SDS011;42641;59.794;17.616;2023-01-31T05:37:44;0.30;;;0.30;;
56770;SDS011;42641;59.794;17.616;2023-01-31T05:40:11;1.43;;;0.40;;
56770;SDS011;42641;59.794;17.616;2023-01-31T05:42:39;1.07;;;0.57;;
56770;SDS011;42641;59.794;17.616;2023-01-31T05:45:07;2.23;;;0.63;;
56770;SDS011;42641;59.794;17.616;2023-01-31T05:47:35;0.40;;;0.40;;
56770;SDS011;42641;59.794;17.616;2023-01-31T05:50:01;1.03;;;0.43;;
56770;SDS011;42641;59.794;17.616;2023-01-31T05:52:28;0.70;;;0.70;;
56770;SDS011;42641;59.794;17.616;2023-01-31T05:54:54;1.87;;;0.67;;
56770;SDS011;42641;59.794;17.616;2023-01-31T05:57:21;0.70;;;0.70;;
56770;SDS011;42641;59.794;17.616;2023-01-31T05:59:48;3.10;;;0.60;;
56770;SDS011;42641;59.794;17.616;2023-01-31T06:02:14;1.43;;;0.47;;
56770;SDS011;42641;59.794;17.616;2023-01-31T06:04:40;1.80;;;0.80;;
56770;SDS011;42641;59.794;17.616;2023-01-31T06:07:07;2.50;;;0.47;;
56770;SDS011;42641;59.794;17.616;2023-01-31T06:09:33;1.43;;;0.53;;
56770;SDS011;42641;59.794;17.616;2023-01-31T06:12:01;0.77;;;0.60;;
56770;SDS011;42641;59.794;17.616;2023-01-31T06:14:28;0.87;;;0.43;;
56770;SDS011;42641;59.794;17.616;2023-01-31T06:16:54;2.00;;;0.73;;
56770;SDS011;42641;59.794;17.616;2023-01-31T06:19:20;1.27;;;0.53;;
56770;SDS011;42641;59.794;17.616;2023-01-31T06:21:50;1.20;;;0.60;;
56770;SDS011;42641;59.794;17.616;2023-01-31T06:24:16;1.30;;;0.70;;
56770;SDS011;42641;59.794;17.616;2023-01-31T06:26:43;0.40;;;0.40;;
56770;SDS011;42641;59.794;17.616;2023-01-31T06:29:09;1.57;;;0.47;;
56770;SDS011;42641;59.794;17.616;2023-01-31T06:31:36;1.60;;;0.60;;
56770;SDS011;42641;59.794;17.616;2023-01-31T06:34:02;1.00;;;0.47;;
56770;SDS011;42641;59.794;17.616;2023-01-31T06:36:32;0.83;;;0.57;;
56770;SDS011;42641;59.794;17.616;2023-01-31T06:38:58;2.27;;;0.80;;
56770;SDS011;42641;59.794;17.616;2023-01-31T06:41:25;0.70;;;0.57;;
56770;SDS011;42641;59.794;17.616;2023-01-31T06:43:51;1.07;;;0.63;;
56770;SDS011;42641;59.794;17.616;2023-01-31T06:46:17;2.03;;;0.60;;
56770;SDS011;42641;59.794;17.616;2023-01-31T06:48:44;3.57;;;0.37;;
56770;SDS011;42641;59.794;17.616;2023-01-31T06:51:11;1.60;;;0.50;;
56770;SDS011;42641;59.794;17.616;2023-01-31T06:53:38;1.77;;;0.60;;
56770;SDS011;42641;59.794;17.616;2023-01-31T06:56:05;1.40;;;0.60;;
56770;SDS011;42641;59.794;17.616;2023-01-31T06:58:32;2.10;;;0.50;;
56770;SDS011;42641;59.794;17.616;2023-01-31T07:01:05;1.67;;;0.60;;
56770;SDS011;42641;59.794;17.616;2023-01-31T07:03:33;1.17;;;0.50;;
56770;SDS011;42641;59.794;17.616;2023-01-31T07:06:00;0.67;;;0.57;;
56770;SDS011;42641;59.794;17.616;2023-01-31T07:08:26;0.93;;;0.53;;
56770;SDS011;42641;59.794;17.616;2023-01-31T07:10:53;5.17;;;0.90;;
56770;SDS011;42641;59.794;17.616;2023-01-31T07:13:19;0.60;;;0.60;;
56770;SDS011;42641;59.794;17.616;2023-01-31T07:15:45;0.77;;;0.53;;
56770;SDS011;42641;59.794;17.616;2023-01-31T07:18:12;1.30;;;0.40;;
56770;SDS011;42641;59.794;17.616;2023-01-31T07:20:39;0.50;;;0.50;;
56770;SDS011;42641;59.794;17.616;2023-01-31T07:23:06;2.73;;;0.40;;
56770;SDS011;42641;59.794;17.616;2023-01-31T07:25:34;1.47;;;0.40;;
56770;SDS011;42641;59.794;17.616;2023-01-31T07:28:01;0.97;;;0.60;;
56770;SDS011;42641;59.794;17.616;2023-01-31T07:30:28;0.53;;;0.40;;
56770;SDS011;42641;59.794;17.616;2023-01-31T07:32:55;0.90;;;0.47;;
56770;SDS011;42641;59.794;17.616;2023-01-31T07:35:21;0.87;;;0.43;;
56770;SDS011;42641;59.794;17.616;2023-01-31T07:37:50;0.57;;;0.47;;
56770;SDS011;42641;59.794;17.616;2023-01-31T07:40:17;1.33;;;0.50;;
56770;SDS011;42641;59.794;17.616;2023-01-31T07:42:44;0.53;;;0.53;;
56770;SDS011;42641;59.794;17.616;2023-01-31T07:45:10;1.90;;;0.60;;
56770;SDS011;42641;59.794;17.616;2023-01-31T07:47:38;0.40;;;0.40;;
56770;SDS011;42641;59.794;17.616;2023-01-31T07:50:05;1.47;;;0.40;;
56770;SDS011;42641;59.794;17.616;2023-01-31T07:52:32;0.67;;;0.43;;
56770;SDS011;42641;59.794;17.616;2023-01-31T07:54:58;0.70;;;0.47;;
56770;SDS011;42641;59.794;17.616;2023-01-31T07:57:25;0.67;;;0.53;;
56770;SDS011;42641;59.794;17.616;2023-01-31T07:59:51;0.83;;;0.67;;
56770;SDS011;42641;59.794;17.616;2023-01-31T08:02:17;0.90;;;0.50;;
56770;SDS011;42641;59.794;17.616;2023-01-31T08:05:03;0.53;;;0.53;;
56770;SDS011;42641;59.794;17.616;2023-01-31T08:07:30;0.60;;;0.60;;
56770;SDS011;42641;59.794;17.616;2023-01-31T08:09:56;0.50;;;0.50;;
56770;SDS011;42641;59.794;17.616;2023-01-31T08:12:23;2.10;;;0.77;;
56770;SDS011;42641;59.794;17.616;2023-01-31T08:14:49;2.30;;;0.40;;
56770;SDS011;42641;59.794;17.616;2023-01-31T08:17:15;0.43;;;0.40;;
56770;SDS011;42641;59.794;17.616;2023-01-31T08:19:42;0.87;;;0.80;;
56770;SDS011;42641;59.794;17.616;2023-01-31T08:22:08;1.30;;;0.60;;
56770;SDS011;42641;59.794;17.616;2023-01-31T08:24:35;1.33;;;0.57;;
56770;SDS011;42641;59.794;17.616;2023-01-31T08:27:02;0.47;;;0.40;;
56770;SDS011;42641;59.794;17.616;2023-01-31T08:29:28;1.97;;;0.80;;
56770;SDS011;42641;59.794;17.616;2023-01-31T08:31:54;0.77;;;0.40;;
56770;SDS011;42641;59.794;17.616;2023-01-31T08:34:21;0.50;;;0.50;;
56770;SDS011;42641;59.794;17.616;2023-01-31T08:36:48;2.37;;;0.60;;
56770;SDS011;42641;59.794;17.616;2023-01-31T08:39:14;1.10;;;0.50;;
56770;SDS011;42641;59.794;17.616;2023-01-31T08:41:41;1.13;;;0.57;;
56770;SDS011;42641;59.794;17.616;2023-01-31T08:44:07;0.50;;;0.50;;
56770;SDS011;42641;59.794;17.616;2023-01-31T08:46:34;0.67;;;0.67;;
56770;SDS011;42641;59.794;17.616;2023-01-31T08:49:03;0.53;;;0.50;;
56770;SDS011;42641;59.794;17.616;2023-01-31T08:51:30;0.73;;;0.60;;
56770;SDS011;42641;59.794;17.616;2023-01-31T08:53:57;0.30;;;0.30;;
56770;SDS011;42641;59.794;17.616;2023-01-31T08:56:23;1.00;;;0.60;;
56770;SDS011;42641;59.794;17.616;2023-01-31T08:58:51;0.50;;;0.50;;
56770;SDS011;42641;59.794;17.616;2023-01-31T09:01:19;1.23;;;0.40;;
56770;SDS011;42641;59.794;17.616;2023-01-31T09:03:46;1.20;;;0.60;;
56770;SDS011;42641;59.794;17.616;2023-01-31T09:06:16;1.23;;;0.47;;
56770;SDS011;42641;59.794;17.616;2023-01-31T09:08:44;0.40;;;0.40;;
56770;SDS011;42641;59.794;17.616;2023-01-31T09:11:11;0.60;;;0.53;;
56770;SDS011;42641;59.794;17.616;2023-01-31T09:13:44;0.43;;;0.40;;
56770;SDS011;42641;59.794;17.616;2023-01-31T09:16:11;0.47;;;0.40;;
56770;SDS011;42641;59.794;17.616;2023-01-31T09:18:39;0.50;;;0.50;;
56770;SDS011;42641;59.794;17.616;2023-01-31T09:21:07;0.97;;;0.83;;
56770;SDS011;42641;59.794;17.616;2023-01-31T09:23:36;0.97;;;0.60;;
56770;SDS011;42641;59.794;17.616;2023-01-31T09:26:03;0.60;;;0.40;;
56770;SDS011;42641;59.794;17.616;2023-01-31T09:28:30;0.50;;;0.50;;
56770;SDS011;42641;59.794;17.616;2023-01-31T09:31:08;1.90;;;0.70;;
56770;SDS011;42641;59.794;17.616;2023-01-31T09:33:36;2.20;;;0.50;;
56770;SDS011;42641;59.794;17.616;2023-01-31T09:36:04;0.63;;;0.53;;
56770;SDS011;42641;59.794;17.616;2023-01-31T09:38:32;2.23;;;0.50;;
56770;SDS011;42641;59.794;17.616;2023-01-31T09:41:04;0.40;;;0.40;;
56770;SDS011;42641;59.794;17.616;2023-01-31T09:43:33;0.93;;;0.73;;
56770;SDS011;42641;59.794;17.616;2023-01-31T09:46:11;0.30;;;0.30;;
56770;SDS011;42641;59.794;17.616;2023-01-31T09:48:41;1.40;;;0.57;;
56770;SDS011;42641;59.794;17.616;2023-01-31T09:51:11;1.50;;;0.67;;
56770;SDS011;42641;59.794;17.616;2023-01-31T09:53:39;1.13;;;0.30;;
56770;SDS011;42641;59.794;17.616;2023-01-31T09:58:56;1.23;;;0.60;;
56770;SDS011;42641;59.794;17.616;2023-01-31T10:01:54;2.93;;;0.63;;
56770;SDS011;42641;59.794;17.616;2023-01-31T10:04:55;0.50;;;0.50;;
56770;SDS011;42641;59.794;17.616;2023-01-31T10:07:45;1.40;;;0.80;;
56770;SDS011;42641;59.794;17.616;2023-01-31T10:12:48;1.33;;;0.63;;
56770;SDS011;42641;59.794;17.616;2023-01-31T10:18:09;0.53;;;0.50;;
56770;SDS011;42641;59.794;17.616;2023-01-31T10:23:28;2.00;;;0.70;;
56770;SDS011;42641;59.794;17.616;2023-01-31T10:26:11;1.33;;;0.50;;
56770;SDS011;42641;59.794;17.616;2023-01-31T10:33:52;2.40;;;0.70;;
56770;SDS011;42641;59.794;17.616;2023-01-31T10:36:28;1.70;;;0.90;;
56770;SDS011;42641;59.794;17.616;2023-01-31T10:44:31;1.60;;;1.03;;
56770;SDS011;42641;59.794;17.616;2023-01-31T10:47:21;1.00;;;0.90;;
56770;SDS011;42641;59.794;17.616;2023-01-31T10:49:51;0.60;;;0.60;;
56770;SDS011;42641;59.794;17.616;2023-01-31T10:57:55;0.60;;;0.60;;
56770;SDS011;42641;59.794;17.616;2023-01-31T11:00:26;1.80;;;0.80;;
56770;SDS011;42641;59.794;17.616;2023-01-31T11:02:55;2.73;;;0.90;;
56770;SDS011;42641;59.794;17.616;2023-01-31T11:05:23;0.50;;;0.50;;
56770;SDS011;42641;59.794;17.616;2023-01-31T11:07:55;1.77;;;0.80;;
56770;SDS011;42641;59.794;17.616;2023-01-31T11:10:24;4.33;;;0.63;;
56770;SDS011;42641;59.794;17.616;2023-01-31T11:12:57;1.23;;;0.90;;
56770;SDS011;42641;59.794;17.616;2023-01-31T11:15:27;2.33;;;0.87;;
56770;SDS011;42641;59.794;17.616;2023-01-31T11:17:59;3.63;;;0.87;;
56770;SDS011;42641;59.794;17.616;2023-01-31T11:20:28;0.90;;;0.70;;
56770;SDS011;42641;59.794;17.616;2023-01-31T11:22:57;0.57;;;0.50;;
56770;SDS011;42641;59.794;17.616;2023-01-31T11:25:25;2.77;;;0.87;;
56770;SDS011;42641;59.794;17.616;2023-01-31T11:27:56;1.63;;;0.60;;
56770;SDS011;42641;59.794;17.616;2023-01-31T11:30:30;0.87;;;0.80;;
56770;SDS011;42641;59.794;17.616;2023-01-31T11:32:59;5.90;;;1.00;;
56770;SDS011;42641;59.794;17.616;2023-01-31T11:35:27;1.83;;;0.87;;
56770;SDS011;42641;59.794;17.616;2023-01-31T11:38:00;1.40;;;0.80;;
56770;SDS011;42641;59.794;17.616;2023-01-31T11:40:36;1.90;;;1.20;;
56770;SDS011;42641;59.794;17.616;2023-01-31T11:43:05;2.90;;;1.00;;
56770;SDS011;42641;59.794;17.616;2023-01-31T11:45:59;3.97;;;0.87;;
56770;SDS011;42641;59.794;17.616;2023-01-31T11:51:07;3.40;;;0.87;;
56770;SDS011;42641;59.794;17.616;2023-01-31T11:53:53;2.17;;;0.80;;
56770;SDS011;42641;59.794;17.616;2023-01-31T11:58:51;2.23;;;1.10;;
56770;SDS011;42641;59.794;17.616;2023-01-31T12:01:23;2.17;;;0.90;;
56770;SDS011;42641;59.794;17.616;2023-01-31T12:03:58;1.27;;;0.80;;
56770;SDS011;42641;59.794;17.616;2023-01-31T12:09:02;3.37;;;0.80;;
56770;SDS011;42641;59.794;17.616;2023-01-31T12:11:48;4.73;;;1.10;;
56770;SDS011;42641;59.794;17.616;2023-01-31T12:14:17;1.27;;;0.77;;
56770;SDS011;42641;59.794;17.616;2023-01-31T12:16:44;1.37;;;0.70;;
56770;SDS011;42641;59.794;17.616;2023-01-31T12:21:45;2.10;;;0.83;;
56770;SDS011;42641;59.794;17.616;2023-01-31T12:24:39;4.60;;;1.00;;
56770;SDS011;42641;59.794;17.616;2023-01-31T12:27:16;2.47;;;0.90;;
56770;SDS011;42641;59.794;17.616;2023-01-31T12:32:56;2.67;;;0.70;;
56770;SDS011;42641;59.794;17.616;2023-01-31T12:43:51;5.43;;;1.03;;
56770;SDS011;42641;59.794;17.616;2023-01-31T13:00:26;1.60;;;0.83;;
56770;SDS011;42641;59.794;17.616;2023-01-31T13:05:50;2.40;;;0.90;;
56770;SDS011;42641;59.794;17.616;2023-01-31T13:08:48;1.70;;;0.70;;
56770;SDS011;42641;59.794;17.616;2023-01-31T13:11:21;4.83;;;0.87;;
56770;SDS011;42641;59.794;17.616;2023-01-31T13:13:56;2.53;;;0.80;;
56770;SDS011;42641;59.794;17.616;2023-01-31T13:19:50;1.27;;;0.90;;
56770;SDS011;42641;59.794;17.616;2023-01-31T13:22:03;3.43;;;0.87;;
56770;SDS011;42641;59.794;17.616;2023-01-31T13:24:37;3.03;;;0.80;;
56770;SDS011;42641;59.794;17.616;2023-01-31T13:27:27;2.97;;;1.00;;
56770;SDS011;42641;59.794;17.616;2023-01-31T13:30:02;1.73;;;0.60;;
56770;SDS011;42641;59.794;17.616;2023-01-31T13:32:51;2.70;;;0.83;;
56770;SDS011;42641;59.794;17.616;2023-01-31T13:35:22;1.50;;;1.00;;
56770;SDS011;42641;59.794;17.616;2023-01-31T13:37:55;1.33;;;0.80;;
56770;SDS011;42641;59.794;17.616;2023-01-31T13:40:31;1.03;;;0.70;;
56770;SDS011;42641;59.794;17.616;2023-01-31T13:43:14;4.73;;;0.90;;
56770;SDS011;42641;59.794;17.616;2023-01-31T13:45:45;2.27;;;0.90;;
56770;SDS011;42641;59.794;17.616;2023-01-31T13:50:44;2.50;;;0.80;;
56770;SDS011;42641;59.794;17.616;2023-01-31T13:53:42;1.90;;;0.70;;
56770;SDS011;42641;59.794;17.616;2023-01-31T13:56:13;3.97;;;0.90;;
56770;SDS011;42641;59.794;17.616;2023-01-31T13:58:53;1.53;;;0.80;;
56770;SDS011;42641;59.794;17.616;2023-01-31T14:01:22;2.27;;;0.90;;
56770;SDS011;42641;59.794;17.616;2023-01-31T14:11:55;4.00;;;1.17;;
56770;SDS011;42641;59.794;17.616;2023-01-31T14:17:02;3.07;;;0.90;;
56770;SDS011;42641;59.794;17.616;2023-01-31T14:32:40;4.07;;;0.90;;
56770;SDS011;42641;59.794;17.616;2023-01-31T14:41:12;6.20;;;1.00;;
56770;SDS011;42641;59.794;17.616;2023-01-31T14:47:05;1.43;;;0.93;;
56770;SDS011;42641;59.794;17.616;2023-01-31T14:57:41;6.90;;;0.90;;
56770;SDS011;42641;59.794;17.616;2023-01-31T15:05:21;3.10;;;1.00;;
56770;SDS011;42641;59.794;17.616;2023-01-31T15:08:06;4.43;;;0.90;;
56770;SDS011;42641;59.794;17.616;2023-01-31T15:16:05;1.83;;;0.90;;
56770;SDS011;42641;59.794;17.616;2023-01-31T15:18:43;1.27;;;0.80;;
56770;SDS011;42641;59.794;17.616;2023-01-31T15:21:16;1.20;;;1.00;;
56770;SDS011;42641;59.794;17.616;2023-01-31T15:23:47;2.07;;;0.93;;
56770;SDS011;42641;59.794;17.616;2023-01-31T15:26:15;4.63;;;1.20;;
56770;SDS011;42641;59.794;17.616;2023-01-31T15:28:43;3.03;;;1.00;;
56770;SDS011;42641;59.794;17.616;2023-01-31T15:31:18;0.87;;;0.70;;
56770;SDS011;42641;59.794;17.616;2023-01-31T15:33:55;1.07;;;0.90;;
56770;SDS011;42641;59.794;17.616;2023-01-31T15:39:02;4.03;;;1.10;;
56770;SDS011;42641;59.794;17.616;2023-01-31T15:41:41;1.67;;;0.70;;
56770;SDS011;42641;59.794;17.616;2023-01-31T15:46:41;1.30;;;1.00;;
56770;SDS011;42641;59.794;17.616;2023-01-31T15:52:03;1.60;;;1.30;;
56770;SDS011;42641;59.794;17.616;2023-01-31T15:54:32;4.67;;;1.70;;
56770;SDS011;42641;59.794;17.616;2023-01-31T15:56:59;1.57;;;1.17;;
56770;SDS011;42641;59.794;17.616;2023-01-31T15:59:28;1.37;;;0.87;;
56770;SDS011;42641;59.794;17.616;2023-01-31T16:01:58;0.90;;;0.87;;
56770;SDS011;42641;59.794;17.616;2023-01-31T16:04:26;0.90;;;0.90;;
56770;SDS011;42641;59.794;17.616;2023-01-31T16:06:54;3.00;;;1.23;;
56770;SDS011;42641;59.794;17.616;2023-01-31T16:09:30;5.00;;;1.20;;
56770;SDS011;42641;59.794;17.616;2023-01-31T16:11:59;1.37;;;1.07;;
56770;SDS011;42641;59.794;17.616;2023-01-31T16:14:27;1.87;;;1.07;;
56770;SDS011;42641;59.794;17.616;2023-01-31T16:16:56;2.10;;;0.83;;
56770;SDS011;42641;59.794;17.616;2023-01-31T16:19:28;4.13;;;1.33;;
56770;SDS011;42641;59.794;17.616;2023-01-31T16:21:57;3.07;;;1.30;;
56770;SDS011;42641;59.794;17.616;2023-01-31T16:24:24;2.47;;;1.30;;
56770;SDS011;42641;59.794;17.616;2023-01-31T16:26:53;2.70;;;1.47;;
56770;SDS011;42641;59.794;17.616;2023-01-31T16:32:17;2.93;;;1.27;;
56770;SDS011;42641;59.794;17.616;2023-01-31T16:34:52;3.47;;;1.20;;
56770;SDS011;42641;59.794;17.616;2023-01-31T16:37:31;2.77;;;1.30;;
56770;SDS011;42641;59.794;17.616;2023-01-31T16:40:27;3.73;;;1.20;;
56770;SDS011;42641;59.794;17.616;2023-01-31T16:43:07;4.03;;;1.53;;
56770;SDS011;42641;59.794;17.616;2023-01-31T16:45:38;1.30;;;1.20;;
56770;SDS011;42641;59.794;17.616;2023-01-31T16:51:00;7.70;;;1.53;;
56770;SDS011;42641;59.794;17.616;2023-01-31T17:04:50;7.60;;;1.10;;
56770;SDS011;42641;59.794;17.616;2023-01-31T17:09:55;3.20;;;1.27;;
56770;SDS011;42641;59.794;17.616;2023-01-31T17:12:27;5.13;;;1.40;;
56770;SDS011;42641;59.794;17.616;2023-01-31T17:14:55;3.30;;;1.07;;
56770;SDS011;42641;59.794;17.616;2023-01-31T17:17:26;3.33;;;1.20;;
56770;SDS011;42641;59.794;17.616;2023-01-31T17:19:54;3.00;;;1.40;;
56770;SDS011;42641;59.794;17.616;2023-01-31T17:22:21;3.37;;;1.40;;
56770;SDS011;42641;59.794;17.616;2023-01-31T17:24:48;3.03;;;1.30;;
56770;SDS011;42641;59.794;17.616;2023-01-31T17:27:16;4.43;;;1.03;;
56770;SDS011;42641;59.794;17.616;2023-01-31T17:29:44;2.93;;;1.27;;
56770;SDS011;42641;59.794;17.616;2023-01-31T17:32:15;1.90;;;1.20;;
56770;SDS011;42641;59.794;17.616;2023-01-31T17:34:43;4.60;;;1.70;;
56770;SDS011;42641;59.794;17.616;2023-01-31T17:37:11;6.30;;;1.97;;
56770;SDS011;42641;59.794;17.616;2023-01-31T17:39:38;3.10;;;1.87;;
56770;SDS011;42641;59.794;17.616;2023-01-31T17:42:04;5.00;;;1.93;;
56770;SDS011;42641;59.794;17.616;2023-01-31T17:44:37;2.10;;;1.73;;
56770;SDS011;42641;59.794;17.616;2023-01-31T17:47:04;3.37;;;2.00;;
56770;SDS011;42641;59.794;17.616;2023-01-31T17:49:30;2.37;;;1.60;;
56770;SDS011;42641;59.794;17.616;2023-01-31T17:51:59;5.90;;;2.23;;
56770;SDS011;42641;59.794;17.616;2023-01-31T17:54:27;2.83;;;1.40;;